createdAt,value
2017-06-28T00:00:41.560Z,70.76
2017-06-28T00:01:51.811Z,71.37
2017-06-28T00:03:02.084Z,71.52
2017-06-28T00:04:12.052Z,71.62
2017-06-28T00:05:22.562Z,71.33
2017-06-28T00:06:32.823Z,71.14
2017-06-28T00:07:42.772Z,71.62
2017-06-28T00:08:53.021Z,71.42
2017-06-28T00:10:03.288Z,71.52
2017-06-28T00:11:13.813Z,71.23
2017-06-28T00:12:24.075Z,71.33
2017-06-28T00:13:34.330Z,71.14
2017-06-28T00:14:44.599Z,72.09
2017-06-28T00:15:54.862Z,71.71
2017-06-28T00:17:05.099Z,71.91
2017-06-28T00:18:15.363Z,72.09
2017-06-28T00:19:25.025Z,72.19
2017-06-28T00:20:34.987Z,72.29
2017-06-28T00:21:45.243Z,72.29
2017-06-28T00:22:55.138Z,72.77
2017-06-28T00:24:05.090Z,72.19
2017-06-28T00:25:15.360Z,72.19
2017-06-28T00:26:25.611Z,72.19
2017-06-28T00:27:35.559Z,72.86
2017-06-28T00:28:45.754Z,72.38
2017-06-28T00:29:55.726Z,72.48
2017-06-28T00:31:05.373Z,72.19
2017-06-28T00:32:15.646Z,73.5
2017-06-28T00:33:25.594Z,73.05
2017-06-28T00:34:36.102Z,73.24
2017-06-28T00:35:46.052Z,73.54
2017-06-28T00:36:56.314Z,73.63
2017-06-28T00:38:06.575Z,73.63
2017-06-28T00:39:16.846Z,73.11
2017-06-28T00:40:27.066Z,72.92
2017-06-28T00:41:37.342Z,73.21
2017-06-28T00:42:46.991Z,73.88
2017-06-28T00:43:56.634Z,73.4
2017-06-28T00:45:06.591Z,73.21
2017-06-28T00:46:17.107Z,73.11
2017-06-28T00:47:27.390Z,72.63
2017-06-28T00:48:37.645Z,72.73
2017-06-28T00:49:47.602Z,73.02
2017-06-28T00:50:57.552Z,73.4
2017-06-28T00:52:08.078Z,73.5
2017-06-28T00:53:18.032Z,73.5
2017-06-28T00:54:27.677Z,73.3
2017-06-28T00:55:37.615Z,73.59
2017-06-28T00:56:47.912Z,73.02
2017-06-28T00:57:58.423Z,73.59
2017-06-28T00:59:08.687Z,73.59
2017-06-28T01:00:18.957Z,73.3
2017-06-28T01:01:29.227Z,73.69
2017-06-28T01:02:39.499Z,73.5
2017-06-28T01:03:50.020Z,73.69
2017-06-28T01:04:59.986Z,73.69
2017-06-28T01:06:10.239Z,73.5
2017-06-28T01:07:20.542Z,73.5
2017-06-28T01:08:30.796Z,74.26
2017-06-28T01:09:41.320Z,73.59
2017-06-28T01:10:51.589Z,73.97
2017-06-28T01:12:01.842Z,73.75
2017-06-28T01:13:12.105Z,73.75
2017-06-28T01:14:22.068Z,73.75
2017-06-28T01:15:32.599Z,74.04
2017-06-28T01:16:42.866Z,74.51
2017-06-28T01:17:53.132Z,74.7
2017-06-28T01:19:03.409Z,74.32
2017-06-28T01:20:13.678Z,74.32
2017-06-28T01:21:23.592Z,74.32
2017-06-28T01:22:33.230Z,73.75
2017-06-28T01:23:43.174Z,74.13
2017-06-28T01:24:53.127Z,74.9
2017-06-28T01:26:03.382Z,74.61
2017-06-28T01:27:13.905Z,74.22
2017-06-28T01:28:24.175Z,74.22
2017-06-28T01:29:34.438Z,74.51
2017-06-28T01:30:44.705Z,74.41
2017-06-28T01:31:54.669Z,74.22
2017-06-28T01:33:05.176Z,74.7
2017-06-28T01:34:15.439Z,74.61
2017-06-28T01:35:25.375Z,74.51
2017-06-28T01:36:35.338Z,74.7
2017-06-28T01:37:45.609Z,74.7
2017-06-28T01:38:56.134Z,74.51
2017-06-28T01:40:06.394Z,74.04
2017-06-28T01:41:16.661Z,74.7
2017-06-28T01:42:26.926Z,74.8
2017-06-28T01:43:37.194Z,74.22
2017-06-28T01:44:47.713Z,74.8
2017-06-28T01:45:58.012Z,74.7
2017-06-28T01:47:08.278Z,74.41
2017-06-28T01:48:18.543Z,74.51
2017-06-28T01:49:28.839Z,74.22
2017-06-28T01:50:39.112Z,74.04
2017-06-28T01:51:49.148Z,73.94
2017-06-28T01:52:59.474Z,73.94
2017-06-28T01:54:09.775Z,74.22
2017-06-28T01:55:20.095Z,74.32
2017-06-28T01:56:30.618Z,74.61
2017-06-28T01:57:40.884Z,74.13
2017-06-28T01:58:51.144Z,74.32
2017-06-28T02:00:01.099Z,74.32
2017-06-28T02:01:11.367Z,74.22
2017-06-28T02:02:21.885Z,74.32
2017-06-28T02:03:31.827Z,74.41
2017-06-28T02:04:42.081Z,74.13
2017-06-28T02:05:52.348Z,75.27
2017-06-28T02:07:02.606Z,74.8
2017-06-28T02:08:12.816Z,74.32
2017-06-28T02:09:22.765Z,74.22
2017-06-28T02:10:33.052Z,74.28
2017-06-28T02:11:43.011Z,74.61
2017-06-28T02:12:53.280Z,74.13
2017-06-28T02:14:03.787Z,74.51
2017-06-28T02:15:14.066Z,74.7
2017-06-28T02:16:24.339Z,74.57
2017-06-28T02:17:34.598Z,74.19
2017-06-28T02:18:44.867Z,73.99
2017-06-28T02:19:55.068Z,74.38
2017-06-28T02:21:05.032Z,74.22
2017-06-28T02:22:14.970Z,74.76
2017-06-28T02:23:25.229Z,74.66
2017-06-28T02:24:35.189Z,74.76
2017-06-28T02:25:45.710Z,74.66
2017-06-28T02:26:56.022Z,74.48
2017-06-28T02:28:06.279Z,74.19
2017-06-28T02:29:16.551Z,73.99
2017-06-28T02:30:26.811Z,74.66
2017-06-28T02:31:37.312Z,74.48
2017-06-28T02:32:47.274Z,74.66
2017-06-28T02:33:57.226Z,74.28
2017-06-28T02:35:07.503Z,74.19
2017-06-28T02:36:17.777Z,74.48
2017-06-28T02:37:27.986Z,74.7
2017-06-28T02:38:37.929Z,73.99
2017-06-28T02:39:47.574Z,74.66
2017-06-28T02:40:57.842Z,74.57
2017-06-28T02:42:08.104Z,74.19
2017-06-28T02:43:18.604Z,73.9
2017-06-28T02:44:28.246Z,74.09
2017-06-28T02:45:38.501Z,73.9
2017-06-28T02:46:48.759Z,74.19
2017-06-28T02:47:59.015Z,74.38
2017-06-28T02:49:09.574Z,73.99
2017-06-28T02:50:19.835Z,73.61
2017-06-28T02:51:29.789Z,73.9
2017-06-28T02:52:40.048Z,74.32
2017-06-28T02:53:50.027Z,74.22
2017-06-28T02:55:00.520Z,73.94
2017-06-28T02:56:10.474Z,74.22
2017-06-28T02:57:20.450Z,74.57
2017-06-28T02:58:30.392Z,74.19
2017-06-28T02:59:40.339Z,74.76
2017-06-28T03:00:50.855Z,74.32
2017-06-28T03:02:00.815Z,74.38
2017-06-28T03:03:11.081Z,74.13
2017-06-28T03:04:20.736Z,74.85
2017-06-28T03:05:30.376Z,74.57
2017-06-28T03:06:40.564Z,74.48
2017-06-28T03:07:50.826Z,74.66
2017-06-28T03:09:01.088Z,74.85
2017-06-28T03:10:11.345Z,74.48
2017-06-28T03:11:21.295Z,74.61
2017-06-28T03:12:31.816Z,74.99
2017-06-28T03:13:42.076Z,74.7
2017-06-28T03:14:52.039Z,74.99
2017-06-28T03:16:02.005Z,74.41
2017-06-28T03:17:12.263Z,74.61
2017-06-28T03:18:22.471Z,74.41
2017-06-28T03:19:32.734Z,74.51
2017-06-28T03:20:42.992Z,74.22
2017-06-28T03:21:52.947Z,74.22
2017-06-28T03:23:03.201Z,74.13
2017-06-28T03:24:13.408Z,74.04
2017-06-28T03:25:23.054Z,73.94
2017-06-28T03:26:33.016Z,73.84
2017-06-28T03:27:42.987Z,73.46
2017-06-28T03:28:53.269Z,73.46
2017-06-28T03:30:03.787Z,73.36
2017-06-28T03:31:13.739Z,73.65
2017-06-28T03:32:23.999Z,73.46
2017-06-28T03:33:33.964Z,73.08
2017-06-28T03:34:44.220Z,73.08
2017-06-28T03:35:54.734Z,73.11
2017-06-28T03:37:05.010Z,73.21
2017-06-28T03:38:15.263Z,72.25
2017-06-28T03:39:25.206Z,72.73
2017-06-28T03:40:35.465Z,72.73
2017-06-28T03:41:45.677Z,72.92
2017-06-28T03:42:55.949Z,73.11
2017-06-28T03:44:06.213Z,72.54
2017-06-28T03:45:16.491Z,72.16
2017-06-28T03:46:26.746Z,72.16
2017-06-28T03:47:37.269Z,72.06
2017-06-28T03:48:47.534Z,72.16
2017-06-28T03:49:57.488Z,72.16
2017-06-28T03:51:07.746Z,72.73
2017-06-28T03:52:18.001Z,72.16
2017-06-28T03:53:28.515Z,72.63
2017-06-28T03:54:38.457Z,72.73
2017-06-28T03:55:48.717Z,72.73
2017-06-28T03:56:58.982Z,72.63
2017-06-28T03:58:09.236Z,73.4
2017-06-28T03:59:19.746Z,73.3
2017-06-28T04:00:29.706Z,73.02
2017-06-28T04:01:39.975Z,73.5
2017-06-28T04:02:49.935Z,73.4
2017-06-28T04:03:59.879Z,73.5
2017-06-28T04:05:10.390Z,73.5
2017-06-28T04:06:20.639Z,73.5
2017-06-28T04:07:30.592Z,73.59
2017-06-28T04:08:40.855Z,73.79
2017-06-28T04:09:51.119Z,74.26
2017-06-28T04:11:01.317Z,74.16
2017-06-28T04:12:11.586Z,73.69
2017-06-28T04:13:21.845Z,74.26
2017-06-28T04:14:31.797Z,74.65
2017-06-28T04:15:42.065Z,74.13
2017-06-28T04:16:52.585Z,74.22
2017-06-28T04:18:02.844Z,74.74
2017-06-28T04:19:13.102Z,74.65
2017-06-28T04:20:23.364Z,74.61
2017-06-28T04:21:33.616Z,74.45
2017-06-28T04:22:44.119Z,74.8
2017-06-28T04:23:53.762Z,74.84
2017-06-28T04:25:04.017Z,74.84
2017-06-28T04:26:13.970Z,75.22
2017-06-28T04:27:23.920Z,75.12
2017-06-28T04:28:34.438Z,75.02
2017-06-28T04:29:43.782Z,75.22
2017-06-28T04:30:54.035Z,74.84
2017-06-28T04:32:04.310Z,75.6
2017-06-28T04:33:14.583Z,75.41
2017-06-28T04:34:25.148Z,75.02
2017-06-28T04:35:35.420Z,75.41
2017-06-28T04:36:45.075Z,75.79
2017-06-28T04:37:55.340Z,75.41
2017-06-28T04:39:05.600Z,75.31
2017-06-28T04:40:16.130Z,75.22
2017-06-28T04:41:26.399Z,75.12
2017-06-28T04:42:36.668Z,75.6
2017-06-28T04:43:46.845Z,75.02
2017-06-28T04:44:57.105Z,75.31
2017-06-28T04:46:07.327Z,75.31
2017-06-28T04:47:17.585Z,74.93
2017-06-28T04:48:27.545Z,75.12
2017-06-28T04:49:37.542Z,75.51
2017-06-28T04:50:47.500Z,75.6
2017-06-28T04:51:57.690Z,75.6
2017-06-28T04:53:07.937Z,75.31
2017-06-28T04:54:17.888Z,75.12
2017-06-28T04:55:28.190Z,75.31
2017-06-28T04:56:38.461Z,75.31
2017-06-28T04:57:48.970Z,75.41
2017-06-28T04:58:58.941Z,75.12
2017-06-28T05:00:09.210Z,75.31
2017-06-28T05:01:19.480Z,74.93
2017-06-28T05:02:29.814Z,75.07
2017-06-28T05:03:40.329Z,74.77
2017-06-28T05:04:50.607Z,74.77
2017-06-28T05:06:00.898Z,74.3
2017-06-28T05:07:11.152Z,74.11
2017-06-28T05:08:21.434Z,74.11
2017-06-28T05:09:31.641Z,74.01
2017-06-28T05:10:41.913Z,73.82
2017-06-28T05:11:52.179Z,73.54
2017-06-28T05:13:01.527Z,73.54
2017-06-28T05:14:11.486Z,73.57
2017-06-28T05:15:21.987Z,73.57
2017-06-28T05:16:31.943Z,73.76
2017-06-28T05:17:41.878Z,72.61
2017-06-28T05:18:51.815Z,73.38
2017-06-28T05:20:01.775Z,72.71
2017-06-28T05:21:12.288Z,72.8
2017-06-28T05:22:22.551Z,72.13
2017-06-28T05:23:32.794Z,72.23
2017-06-28T05:24:43.070Z,71.75
2017-06-28T05:25:53.332Z,70.98
2017-06-28T05:27:03.546Z,71.75
2017-06-28T05:28:13.491Z,71.27
2017-06-28T05:29:23.448Z,71.56
2017-06-28T05:30:33.704Z,71.08
2017-06-28T05:31:43.652Z,71.27
2017-06-28T05:32:53.852Z,71.4
2017-06-28T05:34:03.817Z,71.02
2017-06-28T05:35:14.121Z,71.11
2017-06-28T05:36:24.395Z,70.54
2017-06-28T05:37:34.658Z,71.11
2017-06-28T05:38:44.865Z,70.83
2017-06-28T05:39:55.127Z,70.83
2017-06-28T05:41:05.472Z,70.73
2017-06-28T05:42:15.735Z,70.35
2017-06-28T05:43:26.024Z,70.35
2017-06-28T05:44:36.774Z,70.06
2017-06-28T05:45:47.045Z,69.96
2017-06-28T05:46:57.295Z,70.25
2017-06-28T05:48:07.261Z,70.64
2017-06-28T05:49:17.547Z,70.73
2017-06-28T05:50:28.097Z,70.64
2017-06-28T05:51:38.402Z,70.06
2017-06-28T05:52:48.672Z,70.15
2017-06-28T05:53:58.936Z,69.87
2017-06-28T05:55:09.209Z,70.25
2017-06-28T05:56:19.415Z,69.87
2017-06-28T05:57:29.683Z,70.54
2017-06-28T05:58:39.941Z,70.09
2017-06-28T05:59:49.900Z,70.09
2017-06-28T06:01:00.159Z,69.9
2017-06-28T06:02:10.684Z,69.71
2017-06-28T06:03:20.968Z,69.81
2017-06-28T06:04:30.629Z,69.52
2017-06-28T06:05:40.925Z,69.9
2017-06-28T06:06:50.877Z,69.71
2017-06-28T06:08:01.395Z,69.04
2017-06-28T06:09:11.350Z,69.33
2017-06-28T06:10:21.629Z,69.04
2017-06-28T06:11:31.579Z,69.62
2017-06-28T06:12:41.530Z,69.04
2017-06-28T06:13:52.034Z,69.33
2017-06-28T06:15:02.289Z,68.88
2017-06-28T06:16:12.544Z,68.5
2017-06-28T06:17:22.810Z,68.69
2017-06-28T06:18:33.080Z,68.98
2017-06-28T06:19:43.282Z,68.21
2017-06-28T06:20:53.471Z,68.4
2017-06-28T06:22:03.731Z,68.21
2017-06-28T06:23:14.013Z,68.21
2017-06-28T06:24:23.664Z,67.92
2017-06-28T06:25:34.177Z,67.73
2017-06-28T06:26:44.448Z,68.21
2017-06-28T06:27:54.405Z,67.73
2017-06-28T06:29:04.675Z,67.57
2017-06-28T06:30:14.979Z,67.47
2017-06-28T06:31:25.506Z,67.38
2017-06-28T06:32:35.475Z,67.29
2017-06-28T06:33:45.432Z,67.38
2017-06-28T06:34:55.415Z,67.38
2017-06-28T06:36:05.894Z,66.9
2017-06-28T06:37:16.139Z,66.9
2017-06-28T06:38:26.097Z,66.71
2017-06-28T06:39:36.404Z,66.61
2017-06-28T06:40:46.678Z,67.38
2017-06-28T06:41:56.964Z,67.22
2017-06-28T06:43:07.491Z,67.13
2017-06-28T06:44:17.805Z,66.74
2017-06-28T06:45:28.098Z,67.13
2017-06-28T06:46:38.386Z,66.74
2017-06-28T06:47:48.694Z,66.74
2017-06-28T06:48:59.217Z,66.64
2017-06-28T06:50:09.193Z,66.58
2017-06-28T06:51:19.459Z,66.68
2017-06-28T06:52:29.090Z,66.3
2017-06-28T06:53:38.737Z,66.3
2017-06-28T06:54:48.958Z,66.49
2017-06-28T06:55:59.237Z,66.97
2017-06-28T06:57:09.496Z,66.58
2017-06-28T06:58:19.479Z,66
2017-06-28T06:59:29.845Z,66.39
2017-06-28T07:00:40.652Z,66.1
2017-06-28T07:01:50.620Z,66.42
2017-06-28T07:03:00.895Z,66.23
2017-06-28T07:04:11.150Z,66.14
2017-06-28T07:05:21.527Z,65.94
2017-06-28T07:06:32.068Z,65.17
2017-06-28T07:07:42.355Z,66.14
2017-06-28T07:08:51.383Z,65.17
2017-06-28T07:10:01.341Z,65.27
2017-06-28T07:11:11.656Z,65.17
2017-06-28T07:12:21.861Z,65.37
2017-06-28T07:13:31.835Z,65.5
2017-06-28T07:14:42.124Z,65.17
2017-06-28T07:15:52.388Z,65.78
2017-06-28T07:17:02.659Z,64.92
2017-06-28T07:18:13.174Z,64.63
2017-06-28T07:19:23.499Z,64.73
2017-06-28T07:20:33.784Z,64.34
2017-06-28T07:21:43.742Z,64.37
2017-06-28T07:22:53.719Z,64.08
2017-06-28T07:24:04.246Z,64.56
2017-06-28T07:25:14.509Z,64.37
2017-06-28T07:26:24.481Z,64.18
2017-06-28T07:27:33.926Z,64.18
2017-06-28T07:28:44.328Z,63.22
2017-06-28T07:29:54.530Z,63.64
2017-06-28T07:31:04.803Z,63.64
2017-06-28T07:32:14.770Z,63.06
2017-06-28T07:33:25.022Z,63.73
2017-06-28T07:34:34.987Z,63.15
2017-06-28T07:35:45.219Z,62.67
2017-06-28T07:36:55.493Z,63.06
2017-06-28T07:38:05.456Z,62.57
2017-06-28T07:39:15.756Z,62.32
2017-06-28T07:40:26.023Z,62.32
2017-06-28T07:41:36.563Z,61.93
2017-06-28T07:42:46.838Z,61.35
2017-06-28T07:43:57.132Z,60.77
2017-06-28T07:45:07.403Z,61
2017-06-28T07:46:17.367Z,60.9
2017-06-28T07:47:27.880Z,60.42
2017-06-28T07:48:38.159Z,61.19
2017-06-28T07:49:48.413Z,60.61
2017-06-28T07:50:58.394Z,60.13
2017-06-28T07:52:08.350Z,60.71
2017-06-28T07:53:18.992Z,59.78
2017-06-28T07:54:28.985Z,59.97
2017-06-28T07:55:38.968Z,59.78
2017-06-28T07:56:49.250Z,60.26
2017-06-28T07:57:59.554Z,60.55
2017-06-28T07:59:10.093Z,60.35
2017-06-28T08:00:20.403Z,60.16
2017-06-28T08:01:30.678Z,60.06
2017-06-28T08:02:40.966Z,59.68
2017-06-28T08:03:51.581Z,59.68
2017-06-28T08:05:02.120Z,60.1
2017-06-28T08:06:12.390Z,58.94
2017-06-28T08:07:22.367Z,59.03
2017-06-28T08:08:32.628Z,58.94
2017-06-28T08:09:42.927Z,58.84
2017-06-28T08:10:53.458Z,58.75
2017-06-28T08:12:03.154Z,58.55
2017-06-28T08:13:13.446Z,58.17
2017-06-28T08:14:23.742Z,57.9
2017-06-28T08:15:34.033Z,57.42
2017-06-28T08:16:44.569Z,57.62
2017-06-28T08:17:54.556Z,57.42
2017-06-28T08:19:04.522Z,57.52
2017-06-28T08:20:14.475Z,57.04
2017-06-28T08:21:24.486Z,56.94
2017-06-28T08:22:35.012Z,56.87
2017-06-28T08:23:45.296Z,57.06
2017-06-28T08:24:55.561Z,57.06
2017-06-28T08:26:05.528Z,56.77
2017-06-28T08:27:15.836Z,56.96
2017-06-28T08:28:26.356Z,56.32
2017-06-28T08:29:36.673Z,56.03
2017-06-28T08:30:46.689Z,55.65
2017-06-28T08:31:56.992Z,55.74
2017-06-28T08:33:06.956Z,55.65
2017-06-28T08:34:17.200Z,56.32
2017-06-28T08:35:27.187Z,55.74
2017-06-28T08:36:37.148Z,55.55
2017-06-28T08:37:47.416Z,55.35
2017-06-28T08:38:57.700Z,55.74
2017-06-28T08:40:07.944Z,54.77
2017-06-28T08:41:18.221Z,54.68
2017-06-28T08:42:28.488Z,54.71
2017-06-28T08:43:38.454Z,54.61
2017-06-28T08:44:48.112Z,54.32
2017-06-28T08:46:03.077Z,53.38
2017-06-28T08:47:13.393Z,52.63
2017-06-28T08:48:23.687Z,51.66
2017-06-28T08:49:33.975Z,50.33
2017-06-28T08:50:44.253Z,49.1
2017-06-28T08:51:54.776Z,49.12
2017-06-28T08:53:05.062Z,48.27
2017-06-28T08:54:15.360Z,47.79
2017-06-28T08:55:25.647Z,47.3
2017-06-28T08:56:35.923Z,47.79
2017-06-28T08:57:46.459Z,47.4
2017-06-28T08:58:56.787Z,46.65
2017-06-28T09:00:06.780Z,45.29
2017-06-28T09:01:17.059Z,44.65
2017-06-28T09:02:27.071Z,45.24
2017-06-28T09:03:37.607Z,45.53
2017-06-28T09:04:47.889Z,45.89
2017-06-28T09:05:58.184Z,45.8
2017-06-28T09:07:08.504Z,46.45
2017-06-28T09:08:18.796Z,46.36
2017-06-28T09:09:29.042Z,46.07
2017-06-28T09:10:39.319Z,45.02
2017-06-28T09:11:49.602Z,45.61
2017-06-28T09:12:59.878Z,45.51
2017-06-28T09:14:10.156Z,45.8
2017-06-28T09:15:20.737Z,45.14
2017-06-28T09:16:31.258Z,45.24
2017-06-28T09:17:41.555Z,44.27
2017-06-28T09:18:51.506Z,43.68
2017-06-28T09:20:01.789Z,44
2017-06-28T09:21:12.339Z,43.51
2017-06-28T09:22:22.612Z,44.58
2017-06-28T09:23:32.903Z,44.85
2017-06-28T09:24:42.998Z,45.14
2017-06-28T09:25:53.274Z,45.41
2017-06-28T09:27:03.495Z,45.61
2017-06-28T09:28:13.486Z,45.7
2017-06-28T09:29:22.845Z,44.85
2017-06-28T09:30:33.169Z,44.48
2017-06-28T09:31:43.457Z,43.32
2017-06-28T09:32:53.990Z,42.76
2017-06-28T09:34:03.971Z,42.27
2017-06-28T09:35:13.952Z,42.78
2017-06-28T09:36:23.917Z,42.66
2017-06-28T09:37:34.198Z,42.87
2017-06-28T09:38:44.728Z,42.19
2017-06-28T09:39:55.017Z,41.24
2017-06-28T09:41:05.310Z,41.73
2017-06-28T09:42:15.281Z,41.13
2017-06-28T09:43:25.568Z,41.24
2017-06-28T09:44:36.102Z,39.88
2017-06-28T09:45:46.091Z,39.8
2017-06-28T09:46:56.459Z,40.58
2017-06-28T09:48:06.834Z,40.39
2017-06-28T09:49:17.440Z,39.34
2017-06-28T09:50:28.008Z,39.24
2017-06-28T09:51:38.361Z,38.65
2017-06-28T09:52:48.649Z,37.13
2017-06-28T09:53:58.321Z,37.35
2017-06-28T09:55:08.317Z,38.57
2017-06-28T09:56:18.253Z,39.24
2017-06-28T09:57:28.580Z,40.58
2017-06-28T09:58:38.863Z,40.75
2017-06-28T09:59:49.149Z,40
2017-06-28T10:00:59.449Z,38.75
2017-06-28T10:02:09.989Z,38.65
2017-06-28T10:03:20.299Z,38.57
2017-06-28T10:04:30.590Z,38.48
2017-06-28T10:05:40.561Z,38.01
2017-06-28T10:06:50.539Z,38.4
2017-06-28T10:08:01.089Z,38.49
2017-06-28T10:09:11.653Z,37.73
2017-06-28T10:10:22.007Z,37.25
2017-06-28T10:11:32.256Z,38.12
2017-06-28T10:12:42.543Z,38.01
2017-06-28T10:13:53.144Z,37.33
2017-06-28T10:15:03.118Z,36.35
2017-06-28T10:16:13.403Z,36.76
2017-06-28T10:17:23.093Z,36.57
2017-06-28T10:18:32.771Z,36.68
2017-06-28T10:19:43.306Z,36.78
2017-06-28T10:20:53.418Z,34.84
2017-06-28T10:22:03.697Z,34.96
2017-06-28T10:23:13.998Z,34.86
2017-06-28T10:24:24.281Z,33.89
2017-06-28T10:25:34.839Z,34.97
2017-06-28T10:26:45.123Z,35.25
2017-06-28T10:27:54.778Z,36.04
2017-06-28T10:29:04.476Z,36.49
2017-06-28T10:30:14.473Z,36.49
2017-06-28T10:31:25.000Z,36.21
2017-06-28T10:32:35.308Z,34.47
2017-06-28T10:33:45.301Z,34.57
2017-06-28T10:34:55.589Z,34.97
2017-06-28T10:36:05.866Z,35.33
2017-06-28T10:37:16.099Z,35.53
2017-06-28T10:38:26.079Z,36.1
2017-06-28T10:39:36.376Z,36.49
2017-06-28T10:40:46.054Z,35.61
2017-06-28T10:41:56.389Z,35.43
2017-06-28T10:43:06.949Z,36.51
2017-06-28T10:44:16.935Z,37.17
2017-06-28T10:45:27.228Z,36.57
2017-06-28T10:46:37.517Z,36.39
2017-06-28T10:47:47.506Z,36.78
2017-06-28T10:48:58.042Z,36.21
2017-06-28T10:50:08.315Z,36.11
2017-06-28T10:51:18.282Z,36.29
2017-06-28T10:52:28.249Z,36.76
2017-06-28T10:53:38.514Z,38.1
2017-06-28T10:54:48.745Z,38.38
2017-06-28T10:55:59.062Z,38.87
2017-06-28T10:57:08.767Z,39.65
2017-06-28T10:58:19.061Z,39.75
2017-06-28T10:59:29.379Z,38.95
2017-06-28T11:00:39.598Z,38.57
2017-06-28T11:01:49.892Z,38.2
2017-06-28T11:03:00.172Z,38.01
2017-06-28T11:04:10.488Z,38.4
2017-06-28T11:05:20.485Z,38.69
2017-06-28T11:06:31.033Z,38.87
2017-06-28T11:07:41.336Z,38.67
2017-06-28T11:08:51.610Z,36.66
2017-06-28T11:10:01.898Z,36.02
2017-06-28T11:11:11.883Z,36.02
2017-06-28T11:12:22.404Z,36.31
2017-06-28T11:13:32.370Z,36.6
2017-06-28T11:14:42.060Z,36.88
2017-06-28T11:15:52.372Z,37.73
2017-06-28T11:17:02.654Z,37.71
2017-06-28T11:18:13.236Z,38.01
2017-06-28T11:19:23.534Z,38.49
2017-06-28T11:20:33.505Z,39.16
2017-06-28T11:21:43.764Z,39.06
2017-06-28T11:22:53.770Z,39.43
2017-06-28T11:24:04.366Z,40.01
2017-06-28T11:25:14.340Z,40.58
2017-06-28T11:26:24.322Z,39.72
2017-06-28T11:27:34.592Z,39.24
2017-06-28T11:28:44.901Z,39.53
2017-06-28T11:29:55.487Z,39.75
2017-06-28T11:31:05.472Z,38.77
2017-06-28T11:32:15.750Z,38.48
2017-06-28T11:33:25.738Z,40.6
2017-06-28T11:34:36.052Z,40.41
2017-06-28T11:35:46.619Z,39.55
2017-06-28T11:36:56.930Z,38.57
2017-06-28T11:38:07.244Z,38.59
2017-06-28T11:39:17.571Z,38.02
2017-06-28T11:40:27.888Z,38.79
2017-06-28T11:41:38.432Z,39.47
2017-06-28T11:42:48.394Z,39.84
2017-06-28T11:43:58.711Z,40.6
2017-06-28T11:45:08.995Z,41.19
2017-06-28T11:46:18.994Z,41.46
2017-06-28T11:47:29.549Z,41.06
2017-06-28T11:48:39.846Z,40.41
2017-06-28T11:49:50.150Z,39.92
2017-06-28T11:51:00.439Z,39.26
2017-06-28T11:52:10.679Z,38.96
2017-06-28T11:53:20.893Z,38.4
2017-06-28T11:54:31.198Z,37.73
2017-06-28T11:55:41.488Z,37.46
2017-06-28T11:56:51.763Z,36.6
2017-06-28T11:58:02.061Z,37.87
2017-06-28T11:59:12.354Z,37.85
2017-06-28T12:00:22.701Z,37.85
2017-06-28T12:01:33.017Z,38.14
2017-06-28T12:02:43.003Z,38.71
2017-06-28T12:03:53.301Z,38.42
2017-06-28T12:05:03.847Z,38.51
2017-06-28T12:06:14.192Z,38.51
2017-06-28T12:07:24.519Z,38.14
2017-06-28T12:08:34.799Z,38.14
2017-06-28T12:09:44.806Z,38.43
2017-06-28T12:10:55.373Z,37.55
2017-06-28T12:12:05.673Z,38.14
2017-06-28T12:13:15.962Z,38.04
2017-06-28T12:14:26.254Z,38.53
2017-06-28T12:15:36.561Z,38.81
2017-06-28T12:16:46.788Z,38.42
2017-06-28T12:17:57.070Z,38.51
2017-06-28T12:19:07.050Z,38.51
2017-06-28T12:20:17.362Z,38.22
2017-06-28T12:21:27.657Z,37.37
2017-06-28T12:22:38.177Z,36.43
2017-06-28T12:23:48.463Z,36.44
2017-06-28T12:24:58.761Z,36.83
2017-06-28T12:26:09.057Z,36.82
2017-06-28T12:27:19.036Z,37.48
2017-06-28T12:28:29.558Z,37.38
2017-06-28T12:29:39.841Z,37.87
2017-06-28T12:30:49.824Z,37.87
2017-06-28T12:31:59.796Z,37.48
2017-06-28T12:33:10.081Z,37.67
2017-06-28T12:34:20.609Z,37.11
2017-06-28T12:35:30.888Z,36.91
2017-06-28T12:36:41.162Z,37.5
2017-06-28T12:37:51.446Z,35.94
2017-06-28T12:39:01.727Z,35.28
2017-06-28T12:40:11.950Z,34.52
2017-06-28T12:41:22.307Z,34.24
2017-06-28T12:42:32.279Z,33.18
2017-06-28T12:43:42.265Z,32.61
2017-06-28T12:44:52.262Z,33.59
2017-06-28T12:46:02.785Z,33.77
2017-06-28T12:47:12.752Z,33.28
2017-06-28T12:48:23.023Z,32.61
2017-06-28T12:49:33.321Z,32.34
2017-06-28T12:50:43.292Z,32.61
2017-06-28T12:51:53.503Z,32.43
2017-06-28T12:53:03.792Z,32.43
2017-06-28T12:54:14.078Z,32.45
2017-06-28T12:55:24.384Z,31.94
2017-06-28T12:56:34.660Z,31.35
2017-06-28T12:57:45.196Z,31.26
2017-06-28T12:58:55.479Z,31.84
2017-06-28T13:00:05.764Z,31.45
2017-06-28T13:01:15.724Z,32.53
2017-06-28T13:02:26.008Z,32.51
2017-06-28T13:03:36.531Z,33.58
2017-06-28T13:04:46.827Z,34.54
2017-06-28T13:05:57.136Z,35.87
2017-06-28T13:07:07.410Z,36.34
2017-06-28T13:08:17.725Z,36.83
2017-06-28T13:09:28.243Z,37.4
2017-06-28T13:10:38.535Z,37.38
2017-06-28T13:11:48.805Z,37.19
2017-06-28T13:12:59.099Z,36.99
2017-06-28T13:14:09.386Z,36.52
2017-06-28T13:15:19.949Z,36.05
2017-06-28T13:16:29.921Z,35.28
2017-06-28T13:17:39.924Z,34.64
2017-06-28T13:18:49.897Z,33.65
2017-06-28T13:20:00.186Z,32.51
2017-06-28T13:21:10.745Z,31.37
2017-06-28T13:22:21.035Z,29.91
2017-06-28T13:23:31.351Z,30.3
2017-06-28T13:24:41.606Z,31.27
2017-06-28T13:25:51.557Z,30.08
2017-06-28T13:27:01.457Z,30.39
2017-06-28T13:28:11.432Z,30.19
2017-06-28T13:29:21.729Z,31.35
2017-06-28T13:30:32.009Z,31.34
2017-06-28T13:31:41.975Z,32.6
2017-06-28T13:32:56.508Z,33.75
2017-06-28T13:34:06.782Z,34.62
2017-06-28T13:35:17.062Z,34.88
2017-06-28T13:36:27.034Z,35.85
2017-06-28T13:37:37.335Z,36.82
2017-06-28T13:38:47.257Z,37.29
2017-06-28T13:39:57.556Z,37.38
2017-06-28T13:41:07.578Z,37.55
2017-06-28T13:42:17.859Z,38.04
2017-06-28T13:43:28.151Z,37.95
2017-06-28T13:44:38.693Z,38.04
2017-06-28T13:45:48.960Z,37.46
2017-06-28T13:46:58.933Z,37.46
2017-06-28T13:48:09.216Z,37.46
2017-06-28T13:49:19.493Z,37.55
2017-06-28T13:50:29.724Z,37.65
2017-06-28T13:51:39.997Z,37.07
2017-06-28T13:52:49.947Z,37.17
2017-06-28T13:54:00.204Z,38.43
2017-06-28T13:55:10.164Z,39
2017-06-28T13:56:20.684Z,39.08
2017-06-28T13:57:30.672Z,39.37
2017-06-28T13:58:40.948Z,39.67
2017-06-28T13:59:50.949Z,39.84
2017-06-28T14:01:01.229Z,41.19
2017-06-28T14:02:11.766Z,41.36
2017-06-28T14:03:22.049Z,41.93
2017-06-28T14:04:32.041Z,42.7
2017-06-28T14:05:42.289Z,42.5
2017-06-28T14:06:52.569Z,42.6
2017-06-28T14:08:04.004Z,42.5
2017-06-28T14:09:13.955Z,42.43
2017-06-28T14:10:23.954Z,42.43
2017-06-28T14:11:34.215Z,42.04
2017-06-28T14:12:44.202Z,65.5
2017-06-28T14:13:54.732Z,58.2
2017-06-28T14:15:05.010Z,62.93
2017-06-28T14:16:15.286Z,59.57
2017-06-28T14:17:25.251Z,62.16
2017-06-28T14:18:35.539Z,60.97
2017-06-28T14:19:46.066Z,62.1
2017-06-28T14:20:56.034Z,63.62
2017-06-28T14:22:06.317Z,93.54
2017-06-28T14:23:16.582Z,99.99
2017-06-28T14:24:26.875Z,99.99
2017-06-28T14:25:37.403Z,99.99
2017-06-28T14:26:47.675Z,99.99
2017-06-28T14:27:57.936Z,99.99
2017-06-28T14:29:07.900Z,99.99
2017-06-28T14:30:18.177Z,99.99
2017-06-28T14:31:28.705Z,99.99
2017-06-28T14:32:38.967Z,99.99
2017-06-28T14:33:48.630Z,99.99
2017-06-28T14:34:58.580Z,99.99
2017-06-28T14:36:08.546Z,99.99
2017-06-28T14:37:19.079Z,99.99
2017-06-28T14:38:29.350Z,99.99
2017-06-28T14:39:39.321Z,99.99
2017-06-28T14:40:49.284Z,99.99
2017-06-28T14:41:59.234Z,99.99
2017-06-28T14:43:09.766Z,99.99
2017-06-28T14:44:20.057Z,99.99
2017-06-28T14:45:30.332Z,99.99
2017-06-28T14:46:39.986Z,99.99
2017-06-28T14:47:50.270Z,99.99
2017-06-28T14:49:00.803Z,99.99
2017-06-28T14:50:11.082Z,99.99
2017-06-28T14:51:21.351Z,99.99
2017-06-28T14:52:31.315Z,99.99
2017-06-28T14:53:41.576Z,99.99
2017-06-28T14:54:52.097Z,99.99
2017-06-28T14:56:01.745Z,99.99
2017-06-28T14:57:11.714Z,99.99
2017-06-28T14:58:21.683Z,99.99
2017-06-28T14:59:31.664Z,99.99
2017-06-28T15:00:41.574Z,99.99
2017-06-28T15:01:51.556Z,99.99
2017-06-28T15:03:01.832Z,99.99
2017-06-28T15:04:12.096Z,99.99
2017-06-28T15:05:22.373Z,99.99
2017-06-28T15:06:32.886Z,99.99
2017-06-28T15:07:43.142Z,99.99